sensor_id;sensor_type;location;lat;lon;timestamp;pressure;altitude;pressure_sealevel;temperature;humidity
38812;BME280;24553;51.640;-0.752;2022-07-03T11:17:28;101131.81;;;21.50;100.00
38812;BME280;24553;51.640;-0.752;2022-07-03T11:23:58;101142.44;;;20.32;100.00
38812;BME280;24553;51.640;-0.752;2022-07-03T11:30:04;101145.34;;;20.01;100.00
38812;BME280;24553;51.640;-0.752;2022-07-03T11:32:58;101145.38;;;20.30;100.00
38812;BME280;24553;51.640;-0.752;2022-07-03T11:35:52;101136.47;;;20.87;100.00
38812;BME280;24553;51.640;-0.752;2022-07-03T11:38:44;101140.31;;;21.42;100.00
38812;BME280;24553;51.640;-0.752;2022-07-03T11:41:49;101143.56;;;20.93;100.00
38812;BME280;24553;51.640;-0.752;2022-07-03T11:45:08;101149.47;;;20.61;100.00
38812;BME280;24553;51.640;-0.752;2022-07-03T11:48:00;101143.09;;;20.96;100.00
38812;BME280;24553;51.640;-0.752;2022-07-03T11:50:59;101157.56;;;20.61;100.00
38812;BME280;24553;51.640;-0.752;2022-07-03T11:53:52;101155.44;;;20.23;100.00
38812;BME280;24553;51.640;-0.752;2022-07-03T11:56:45;101155.41;;;20.92;100.00
38812;BME280;24553;51.640;-0.752;2022-07-03T11:59:37;101155.47;;;21.43;100.00
38812;BME280;24553;51.640;-0.752;2022-07-03T12:02:29;101148.41;;;21.08;100.00
38812;BME280;24553;51.640;-0.752;2022-07-03T12:05:22;101139.53;;;21.63;100.00
38812;BME280;24553;51.640;-0.752;2022-07-03T12:08:16;101136.56;;;22.04;100.00
38812;BME280;24553;51.640;-0.752;2022-07-03T12:11:23;101139.00;;;22.49;100.00
38812;BME280;24553;51.640;-0.752;2022-07-03T12:14:16;101137.13;;;22.50;100.00
38812;BME280;24553;51.640;-0.752;2022-07-03T12:17:10;101141.16;;;22.25;100.00
38812;BME280;24553;51.640;-0.752;2022-07-03T12:20:04;101138.16;;;21.99;100.00
38812;BME280;24553;51.640;-0.752;2022-07-03T12:23:00;101129.59;;;22.52;96.37
38812;BME280;24553;51.640;-0.752;2022-07-03T12:25:52;101131.44;;;22.78;94.92
38812;BME280;24553;51.640;-0.752;2022-07-03T12:28:45;101130.53;;;22.68;84.40
38812;BME280;24553;51.640;-0.752;2022-07-03T12:31:39;101135.34;;;22.60;93.61
38812;BME280;24553;51.640;-0.752;2022-07-03T12:34:31;101131.25;;;23.17;92.49
38812;BME280;24553;51.640;-0.752;2022-07-03T12:40:29;101133.53;;;21.78;96.13
38812;BME280;24553;51.640;-0.752;2022-07-03T12:43:21;101146.81;;;21.80;97.06
38812;BME280;24553;51.640;-0.752;2022-07-03T12:49:30;101150.69;;;21.67;97.67
38812;BME280;24553;51.640;-0.752;2022-07-03T12:52:22;101150.69;;;21.33;95.16
38812;BME280;24553;51.640;-0.752;2022-07-03T12:58:22;101146.69;;;20.44;100.00
38812;BME280;24553;51.640;-0.752;2022-07-03T13:01:34;101149.41;;;20.44;100.00
38812;BME280;24553;51.640;-0.752;2022-07-03T13:04:37;101145.13;;;19.91;100.00
38812;BME280;24553;51.640;-0.752;2022-07-03T13:07:40;101144.41;;;19.96;100.00
38812;BME280;24553;51.640;-0.752;2022-07-03T13:10:32;101148.63;;;20.03;100.00
38812;BME280;24553;51.640;-0.752;2022-07-03T13:13:26;101142.16;;;20.04;100.00
38812;BME280;24553;51.640;-0.752;2022-07-03T13:16:35;101142.44;;;19.91;100.00
38812;BME280;24553;51.640;-0.752;2022-07-03T13:19:28;101143.94;;;19.99;100.00
38812;BME280;24553;51.640;-0.752;2022-07-03T13:22:21;101148.06;;;20.18;100.00
38812;BME280;24553;51.640;-0.752;2022-07-03T13:25:13;101138.72;;;20.21;100.00
38812;BME280;24553;51.640;-0.752;2022-07-03T13:28:17;101142.09;;;20.28;100.00
38812;BME280;24553;51.640;-0.752;2022-07-03T13:31:09;101146.94;;;20.14;100.00
38812;BME280;24553;51.640;-0.752;2022-07-03T13:34:02;101149.25;;;20.22;100.00
38812;BME280;24553;51.640;-0.752;2022-07-03T13:36:54;101146.69;;;20.16;100.00
38812;BME280;24553;51.640;-0.752;2022-07-03T13:39:46;101148.94;;;20.07;100.00
38812;BME280;24553;51.640;-0.752;2022-07-03T13:42:38;101144.25;;;20.02;100.00
38812;BME280;24553;51.640;-0.752;2022-07-03T13:45:31;101147.75;;;20.15;100.00
38812;BME280;24553;51.640;-0.752;2022-07-03T13:48:23;101148.84;;;20.42;100.00
38812;BME280;24553;51.640;-0.752;2022-07-03T13:51:15;101150.56;;;20.60;100.00
38812;BME280;24553;51.640;-0.752;2022-07-03T13:54:08;101144.38;;;20.77;100.00
38812;BME280;24553;51.640;-0.752;2022-07-03T13:57:00;101140.16;;;21.15;100.00
38812;BME280;24553;51.640;-0.752;2022-07-03T13:59:53;101145.19;;;20.77;100.00
38812;BME280;24553;51.640;-0.752;2022-07-03T14:02:46;101144.28;;;20.72;100.00
38812;BME280;24553;51.640;-0.752;2022-07-03T14:05:38;101145.72;;;20.91;100.00
38812;BME280;24553;51.640;-0.752;2022-07-03T14:08:33;101145.94;;;21.06;100.00
38812;BME280;24553;51.640;-0.752;2022-07-03T14:11:26;101148.81;;;21.00;99.61
38812;BME280;24553;51.640;-0.752;2022-07-03T14:14:18;101162.69;;;20.91;100.00
38812;BME280;24553;51.640;-0.752;2022-07-03T14:17:10;101158.28;;;21.02;100.00
38812;BME280;24553;51.640;-0.752;2022-07-03T14:20:03;101151.97;;;20.80;99.93
38812;BME280;24553;51.640;-0.752;2022-07-03T14:22:56;101152.53;;;20.53;100.00
38812;BME280;24553;51.640;-0.752;2022-07-03T14:25:48;101153.19;;;20.72;100.00
38812;BME280;24553;51.640;-0.752;2022-07-03T14:28:40;101162.16;;;20.78;100.00
38812;BME280;24553;51.640;-0.752;2022-07-03T14:31:53;101164.53;;;20.74;100.00
38812;BME280;24553;51.640;-0.752;2022-07-03T14:34:58;101166.31;;;20.68;100.00
38812;BME280;24553;51.640;-0.752;2022-07-03T14:37:50;101167.09;;;20.40;100.00
38812;BME280;24553;51.640;-0.752;2022-07-03T14:43:55;101172.56;;;20.57;100.00
38812;BME280;24553;51.640;-0.752;2022-07-03T14:46:48;101174.31;;;20.63;100.00
38812;BME280;24553;51.640;-0.752;2022-07-03T14:49:40;101171.13;;;21.12;100.00
38812;BME280;24553;51.640;-0.752;2022-07-03T14:52:32;101167.91;;;21.32;100.00
38812;BME280;24553;51.640;-0.752;2022-07-03T14:55:24;101167.47;;;21.52;100.00
38812;BME280;24553;51.640;-0.752;2022-07-03T14:58:26;101177.59;;;21.45;100.00
38812;BME280;24553;51.640;-0.752;2022-07-03T15:01:19;101177.59;;;21.28;100.00
38812;BME280;24553;51.640;-0.752;2022-07-03T15:04:16;101175.13;;;21.09;100.00
38812;BME280;24553;51.640;-0.752;2022-07-03T15:07:23;101178.69;;;20.98;100.00
38812;BME280;24553;51.640;-0.752;2022-07-03T15:10:17;101173.13;;;20.88;100.00
38812;BME280;24553;51.640;-0.752;2022-07-03T15:16:18;101179.19;;;20.95;100.00
38812;BME280;24553;51.640;-0.752;2022-07-03T15:19:11;101179.97;;;20.79;100.00
38812;BME280;24553;51.640;-0.752;2022-07-03T15:22:04;101175.97;;;20.53;100.00
38812;BME280;24553;51.640;-0.752;2022-07-03T15:24:57;101177.81;;;20.23;100.00
38812;BME280;24553;51.640;-0.752;2022-07-03T15:27:50;101174.25;;;19.94;100.00
38812;BME280;24553;51.640;-0.752;2022-07-03T15:30:46;101178.69;;;19.77;100.00
38812;BME280;24553;51.640;-0.752;2022-07-03T15:33:38;101179.16;;;19.62;100.00
38812;BME280;24553;51.640;-0.752;2022-07-03T15:36:42;101192.56;;;19.38;100.00
38812;BME280;24553;51.640;-0.752;2022-07-03T15:39:48;101191.88;;;18.89;100.00
38812;BME280;24553;51.640;-0.752;2022-07-03T15:42:56;101193.78;;;18.70;100.00
38812;BME280;24553;51.640;-0.752;2022-07-03T15:46:18;101197.91;;;18.55;100.00
38812;BME280;24553;51.640;-0.752;2022-07-03T15:49:23;101202.69;;;18.52;100.00
38812;BME280;24553;51.640;-0.752;2022-07-03T15:52:24;101196.81;;;18.44;100.00
38812;BME280;24553;51.640;-0.752;2022-07-03T15:55:20;101196.28;;;18.35;100.00
38812;BME280;24553;51.640;-0.752;2022-07-03T15:58:17;101194.38;;;18.24;100.00
38812;BME280;24553;51.640;-0.752;2022-07-03T16:07:36;101212.41;;;18.17;100.00
38812;BME280;24553;51.640;-0.752;2022-07-03T16:10:45;101216.34;;;18.14;100.00
38812;BME280;24553;51.640;-0.752;2022-07-03T16:13:38;101221.50;;;17.97;100.00
38812;BME280;24553;51.640;-0.752;2022-07-03T16:16:46;101215.22;;;17.78;100.00
38812;BME280;24553;51.640;-0.752;2022-07-03T16:22:51;101206.34;;;17.84;100.00
38812;BME280;24553;51.640;-0.752;2022-07-03T16:25:46;101214.66;;;18.38;100.00
38812;BME280;24553;51.640;-0.752;2022-07-03T16:31:49;101200.09;;;19.60;100.00
38812;BME280;24553;51.640;-0.752;2022-07-03T16:34:50;101198.47;;;20.06;100.00
38812;BME280;24553;51.640;-0.752;2022-07-03T16:38:02;101192.13;;;20.12;100.00
38812;BME280;24553;51.640;-0.752;2022-07-03T16:40:57;101193.44;;;19.74;100.00
38812;BME280;24553;51.640;-0.752;2022-07-03T16:43:55;101195.59;;;19.30;100.00
38812;BME280;24553;51.640;-0.752;2022-07-03T16:46:49;101196.53;;;19.24;100.00
38812;BME280;24553;51.640;-0.752;2022-07-03T16:49:43;101195.34;;;19.20;100.00
38812;BME280;24553;51.640;-0.752;2022-07-03T16:52:36;101192.19;;;19.11;100.00
38812;BME280;24553;51.640;-0.752;2022-07-03T16:55:29;101185.78;;;19.24;100.00
38812;BME280;24553;51.640;-0.752;2022-07-03T16:58:24;101185.31;;;19.27;100.00
38812;BME280;24553;51.640;-0.752;2022-07-03T17:01:17;101187.19;;;19.38;100.00
38812;BME280;24553;51.640;-0.752;2022-07-03T17:07:59;101182.06;;;19.49;100.00
38812;BME280;24553;51.640;-0.752;2022-07-03T17:10:56;101187.81;;;19.52;100.00
38812;BME280;24553;51.640;-0.752;2022-07-03T17:13:48;101190.72;;;19.39;100.00
38812;BME280;24553;51.640;-0.752;2022-07-03T17:17:02;101181.72;;;19.45;100.00
38812;BME280;24553;51.640;-0.752;2022-07-03T17:20:10;101179.22;;;19.20;100.00
38812;BME280;24553;51.640;-0.752;2022-07-03T17:23:07;101178.53;;;19.13;100.00
38812;BME280;24553;51.640;-0.752;2022-07-03T17:26:03;101171.84;;;19.04;100.00
38812;BME280;24553;51.640;-0.752;2022-07-03T17:29:05;101172.06;;;19.02;100.00
38812;BME280;24553;51.640;-0.752;2022-07-03T17:31:58;101168.00;;;20.17;100.00
38812;BME280;24553;51.640;-0.752;2022-07-03T17:34:54;101162.84;;;20.56;100.00
38812;BME280;24553;51.640;-0.752;2022-07-03T17:37:47;101171.25;;;20.60;100.00
38812;BME280;24553;51.640;-0.752;2022-07-03T17:40:43;101176.19;;;20.11;100.00
38812;BME280;24553;51.640;-0.752;2022-07-03T17:43:36;101177.25;;;20.21;100.00
38812;BME280;24553;51.640;-0.752;2022-07-03T17:46:29;101176.94;;;19.94;100.00
38812;BME280;24553;51.640;-0.752;2022-07-03T17:49:23;101171.41;;;19.54;100.00
38812;BME280;24553;51.640;-0.752;2022-07-03T17:52:16;101169.97;;;19.04;100.00
38812;BME280;24553;51.640;-0.752;2022-07-03T17:55:10;101175.78;;;18.71;100.00
38812;BME280;24553;51.640;-0.752;2022-07-03T17:58:04;101184.53;;;18.85;100.00
38812;BME280;24553;51.640;-0.752;2022-07-03T18:00:57;101184.75;;;18.65;100.00
38812;BME280;24553;51.640;-0.752;2022-07-03T18:03:49;101190.53;;;18.50;100.00
38812;BME280;24553;51.640;-0.752;2022-07-03T18:06:43;101192.56;;;18.36;100.00
38812;BME280;24553;51.640;-0.752;2022-07-03T18:09:36;101196.44;;;18.40;100.00
38812;BME280;24553;51.640;-0.752;2022-07-03T18:12:35;101192.44;;;18.31;100.00
38812;BME280;24553;51.640;-0.752;2022-07-03T18:15:37;101191.53;;;18.19;100.00
38812;BME280;24553;51.640;-0.752;2022-07-03T18:18:41;101203.38;;;18.11;100.00
38812;BME280;24553;51.640;-0.752;2022-07-03T18:24:57;101195.41;;;18.23;100.00
38812;BME280;24553;51.640;-0.752;2022-07-03T18:27:49;101197.56;;;18.51;100.00
38812;BME280;24553;51.640;-0.752;2022-07-03T18:30:43;101197.47;;;18.39;100.00
38812;BME280;24553;51.640;-0.752;2022-07-03T18:33:38;101199.94;;;18.22;100.00
38812;BME280;24553;51.640;-0.752;2022-07-03T18:36:31;101200.84;;;18.16;100.00
38812;BME280;24553;51.640;-0.752;2022-07-03T18:39:23;101196.75;;;18.14;100.00
38812;BME280;24553;51.640;-0.752;2022-07-03T18:42:19;101196.44;;;18.03;100.00
38812;BME280;24553;51.640;-0.752;2022-07-03T18:45:12;101189.97;;;17.93;100.00
38812;BME280;24553;51.640;-0.752;2022-07-03T18:48:05;101183.47;;;17.82;100.00
38812;BME280;24553;51.640;-0.752;2022-07-03T18:50:49;101197.16;;;17.74;100.00
38812;BME280;24553;51.640;-0.752;2022-07-03T19:00:09;101206.09;;;17.42;100.00
38812;BME280;24553;51.640;-0.752;2022-07-03T19:03:11;101194.63;;;17.29;100.00
38812;BME280;24553;51.640;-0.752;2022-07-03T19:06:06;101194.53;;;17.17;100.00
38812;BME280;24553;51.640;-0.752;2022-07-03T19:09:12;101207.16;;;17.03;100.00
38812;BME280;24553;51.640;-0.752;2022-07-03T19:12:11;101210.56;;;16.85;100.00
38812;BME280;24553;51.640;-0.752;2022-07-03T19:15:07;101201.56;;;16.73;100.00
38812;BME280;24553;51.640;-0.752;2022-07-03T19:18:00;101204.09;;;16.61;100.00
38812;BME280;24553;51.640;-0.752;2022-07-03T19:20:52;101208.69;;;16.47;100.00
38812;BME280;24553;51.640;-0.752;2022-07-03T19:23:44;101207.47;;;16.36;100.00
38812;BME280;24553;51.640;-0.752;2022-07-03T19:26:37;101207.94;;;16.20;100.00
38812;BME280;24553;51.640;-0.752;2022-07-03T19:29:29;101215.41;;;15.98;100.00
38812;BME280;24553;51.640;-0.752;2022-07-03T19:35:24;101218.72;;;15.87;100.00
38812;BME280;24553;51.640;-0.752;2022-07-03T19:38:17;101225.31;;;15.78;100.00
38812;BME280;24553;51.640;-0.752;2022-07-03T19:41:11;101227.13;;;15.64;100.00
38812;BME280;24553;51.640;-0.752;2022-07-03T19:44:03;101233.31;;;15.44;100.00
38812;BME280;24553;51.640;-0.752;2022-07-03T19:46:57;101228.16;;;15.30;100.00
38812;BME280;24553;51.640;-0.752;2022-07-03T19:49:50;101230.41;;;15.13;100.00
38812;BME280;24553;51.640;-0.752;2022-07-03T19:52:42;101240.03;;;15.00;100.00
38812;BME280;24553;51.640;-0.752;2022-07-03T19:55:35;101245.31;;;14.87;100.00
38812;BME280;24553;51.640;-0.752;2022-07-03T19:58:37;101250.81;;;14.79;100.00
38812;BME280;24553;51.640;-0.752;2022-07-03T20:01:30;101259.22;;;14.76;100.00
38812;BME280;24553;51.640;-0.752;2022-07-03T20:04:38;101260.81;;;14.64;100.00
38812;BME280;24553;51.640;-0.752;2022-07-03T20:07:30;101271.16;;;14.45;100.00
38812;BME280;24553;51.640;-0.752;2022-07-03T20:10:22;101269.41;;;14.24;100.00
38812;BME280;24553;51.640;-0.752;2022-07-03T20:13:16;101278.53;;;14.08;100.00
38812;BME280;24553;51.640;-0.752;2022-07-03T20:16:11;101278.22;;;13.90;100.00
38812;BME280;24553;51.640;-0.752;2022-07-03T20:19:03;101288.56;;;13.78;100.00
38812;BME280;24553;51.640;-0.752;2022-07-03T20:21:57;101300.13;;;13.64;100.00
38812;BME280;24553;51.640;-0.752;2022-07-03T20:24:49;101302.22;;;13.47;100.00
38812;BME280;24553;51.640;-0.752;2022-07-03T20:27:47;101309.09;;;13.35;100.00
38812;BME280;24553;51.640;-0.752;2022-07-03T20:30:39;101313.38;;;13.21;100.00
38812;BME280;24553;51.640;-0.752;2022-07-03T20:33:31;101320.47;;;13.14;100.00
38812;BME280;24553;51.640;-0.752;2022-07-03T20:36:34;101323.44;;;13.04;100.00
38812;BME280;24553;51.640;-0.752;2022-07-03T20:42:33;101337.16;;;12.71;100.00
38812;BME280;24553;51.640;-0.752;2022-07-03T20:45:30;101345.94;;;12.57;100.00
38812;BME280;24553;51.640;-0.752;2022-07-03T20:48:39;101343.47;;;12.40;100.00
38812;BME280;24553;51.640;-0.752;2022-07-03T20:51:56;101348.97;;;12.24;100.00
38812;BME280;24553;51.640;-0.752;2022-07-03T20:55:11;101362.88;;;12.11;100.00
38812;BME280;24553;51.640;-0.752;2022-07-03T20:58:07;101371.53;;;12.05;100.00
38812;BME280;24553;51.640;-0.752;2022-07-03T21:01:00;101378.41;;;11.99;100.00
38812;BME280;24553;51.640;-0.752;2022-07-03T21:03:52;101375.66;;;11.85;100.00
38812;BME280;24553;51.640;-0.752;2022-07-03T21:06:45;101384.03;;;11.73;100.00
38812;BME280;24553;51.640;-0.752;2022-07-03T21:09:38;101385.94;;;11.65;100.00
38812;BME280;24553;51.640;-0.752;2022-07-03T21:12:30;101388.81;;;11.55;100.00
38812;BME280;24553;51.640;-0.752;2022-07-03T21:15:22;101389.03;;;11.45;100.00
38812;BME280;24553;51.640;-0.752;2022-07-03T21:18:14;101392.75;;;11.36;100.00
38812;BME280;24553;51.640;-0.752;2022-07-03T21:21:06;101401.78;;;11.19;100.00
38812;BME280;24553;51.640;-0.752;2022-07-03T21:23:59;101408.78;;;11.03;100.00
38812;BME280;24553;51.640;-0.752;2022-07-03T21:26:59;101408.16;;;10.93;100.00
38812;BME280;24553;51.640;-0.752;2022-07-03T21:29:53;101408.50;;;10.90;100.00
38812;BME280;24553;51.640;-0.752;2022-07-03T21:32:45;101407.22;;;10.78;100.00
38812;BME280;24553;51.640;-0.752;2022-07-03T21:35:37;101414.53;;;10.67;100.00
38812;BME280;24553;51.640;-0.752;2022-07-03T21:38:29;101423.00;;;10.55;100.00
38812;BME280;24553;51.640;-0.752;2022-07-03T21:41:22;101415.88;;;10.47;100.00
38812;BME280;24553;51.640;-0.752;2022-07-03T21:44:14;101421.53;;;10.44;100.00
38812;BME280;24553;51.640;-0.752;2022-07-03T21:50:09;101427.31;;;10.23;100.00
38812;BME280;24553;51.640;-0.752;2022-07-03T21:53:02;101430.25;;;10.12;100.00
38812;BME280;24553;51.640;-0.752;2022-07-03T21:55:54;101440.19;;;10.01;100.00
38812;BME280;24553;51.640;-0.752;2022-07-03T21:58:46;101442.00;;;9.93;100.00
38812;BME280;24553;51.640;-0.752;2022-07-03T22:01:38;101444.81;;;9.91;100.00
38812;BME280;24553;51.640;-0.752;2022-07-03T22:04:30;101448.78;;;9.79;100.00
38812;BME280;24553;51.640;-0.752;2022-07-03T22:07:22;101445.09;;;9.72;100.00
38812;BME280;24553;51.640;-0.752;2022-07-03T22:10:16;101451.88;;;9.58;100.00
38812;BME280;24553;51.640;-0.752;2022-07-03T22:13:08;101456.28;;;9.49;100.00
38812;BME280;24553;51.640;-0.752;2022-07-03T22:16:01;101463.19;;;9.42;100.00
38812;BME280;24553;51.640;-0.752;2022-07-03T22:18:54;101465.03;;;9.42;100.00
38812;BME280;24553;51.640;-0.752;2022-07-03T22:21:46;101457.63;;;9.45;100.00
38812;BME280;24553;51.640;-0.752;2022-07-03T22:24:38;101462.72;;;9.47;100.00
38812;BME280;24553;51.640;-0.752;2022-07-03T22:27:31;101451.53;;;9.53;100.00
38812;BME280;24553;51.640;-0.752;2022-07-03T22:30:24;101462.97;;;9.61;100.00
38812;BME280;24553;51.640;-0.752;2022-07-03T22:33:16;101459.63;;;9.59;100.00
38812;BME280;24553;51.640;-0.752;2022-07-03T22:36:09;101461.59;;;9.49;100.00
38812;BME280;24553;51.640;-0.752;2022-07-03T22:39:01;101470.66;;;9.38;100.00
38812;BME280;24553;51.640;-0.752;2022-07-03T22:41:53;101466.81;;;9.33;100.00
38812;BME280;24553;51.640;-0.752;2022-07-03T22:44:45;101460.38;;;9.35;100.00
38812;BME280;24553;51.640;-0.752;2022-07-03T22:47:38;101463.03;;;9.35;100.00
38812;BME280;24553;51.640;-0.752;2022-07-03T22:50:30;101464.63;;;9.28;100.00
38812;BME280;24553;51.640;-0.752;2022-07-03T22:53:22;101458.03;;;9.24;100.00
38812;BME280;24553;51.640;-0.752;2022-07-03T22:56:14;101460.00;;;9.22;100.00
38812;BME280;24553;51.640;-0.752;2022-07-03T22:59:07;101464.97;;;9.25;100.00
38812;BME280;24553;51.640;-0.752;2022-07-03T23:01:59;101455.72;;;9.29;100.00
38812;BME280;24553;51.640;-0.752;2022-07-03T23:04:51;101463.53;;;9.39;100.00
38812;BME280;24553;51.640;-0.752;2022-07-03T23:07:43;101459.94;;;9.48;100.00
38812;BME280;24553;51.640;-0.752;2022-07-03T23:10:36;101467.06;;;9.48;100.00
38812;BME280;24553;51.640;-0.752;2022-07-03T23:13:28;101455.41;;;9.32;100.00
38812;BME280;24553;51.640;-0.752;2022-07-03T23:16:20;101455.03;;;9.19;100.00
38812;BME280;24553;51.640;-0.752;2022-07-03T23:19:12;101462.03;;;9.02;100.00
38812;BME280;24553;51.640;-0.752;2022-07-03T23:22:05;101454.06;;;8.94;100.00
38812;BME280;24553;51.640;-0.752;2022-07-03T23:24:57;101447.56;;;8.88;100.00
38812;BME280;24553;51.640;-0.752;2022-07-03T23:27:49;101457.94;;;8.82;100.00
38812;BME280;24553;51.640;-0.752;2022-07-03T23:30:41;101449.13;;;8.73;100.00
38812;BME280;24553;51.640;-0.752;2022-07-03T23:33:33;101458.66;;;8.66;100.00
38812;BME280;24553;51.640;-0.752;2022-07-03T23:36:25;101464.56;;;8.60;100.00
38812;BME280;24553;51.640;-0.752;2022-07-03T23:39:18;101467.69;;;8.55;100.00
38812;BME280;24553;51.640;-0.752;2022-07-03T23:42:10;101468.81;;;8.52;100.00
38812;BME280;24553;51.640;-0.752;2022-07-03T23:45:02;101468.44;;;8.47;100.00
38812;BME280;24553;51.640;-0.752;2022-07-03T23:47:54;101455.41;;;8.36;100.00
38812;BME280;24553;51.640;-0.752;2022-07-03T23:50:46;101449.94;;;8.29;100.00
38812;BME280;24553;51.640;-0.752;2022-07-03T23:53:39;101465.53;;;8.23;100.00
38812;BME280;24553;51.640;-0.752;2022-07-03T23:56:31;101472.13;;;8.19;100.00
38812;BME280;24553;51.640;-0.752;2022-07-03T23:59:23;101465.47;;;8.15;100.00
